Time;durP1;ratioP1;P1;durP2;ratioP2;P2;SDS_P1;SDS_P2;PMS_P1;PMS_P2;Temp;Humidity;BMP_temperature;BMP_pressure;BME280_temperature;BME280_humidity;BME280_pressure;Samples;Min_cycle;Max_cycle;Signal;HPM_P1;HPM_P2
2022/07/16 00:02:01;;;;;;;4.77;2.27;;;;;;;23.28;100.00;101162.38;2072011;28;20197;-68
2022/07/16 00:03:02;;;;;;;4.63;2.40;;;;;;;22.82;100.00;101089.09;2073119;28;20212;-68
2022/07/16 00:04:02;;;;;;;4.47;2.20;;;;;;;23.45;100.00;101188.66;2069105;28;20299;-68
2022/07/16 00:05:03;;;;;;;3.43;2.00;;;;;;;23.40;100.00;101183.75;2065125;28;20245;-69
2022/07/16 00:06:04;;;;;;;4.67;2.10;;;;;;;23.45;100.00;101183.78;2067053;28;20267;-68
2022/07/16 00:07:05;;;;;;;6.47;2.10;;;;;;;23.44;100.00;101187.13;2072604;28;20174;-68
2022/07/16 00:08:05;;;;;;;4.37;2.27;;;;;;;23.43;100.00;101188.41;2073815;28;20621;-68
2022/07/16 00:09:06;;;;;;;3.23;2.40;;;;;;;23.44;100.00;101182.22;2065799;28;20198;-68
2022/07/16 00:10:07;;;;;;;3.37;2.00;;;;;;;23.41;100.00;101186.06;2065466;28;20198;-68
2022/07/16 00:11:07;;;;;;;5.87;2.40;;;;;;;23.43;100.00;101188.41;2070947;28;20213;-68
2022/07/16 00:12:08;;;;;;;4.50;2.30;;;;;;;22.35;100.00;101032.53;2073097;28;20526;-68
2022/07/16 00:13:09;;;;;;;5.13;2.50;;;;;;;22.79;100.00;101092.16;2070162;28;20205;-68
2022/07/16 00:14:09;;;;;;;4.87;2.50;;;;;;;23.42;100.00;101190.44;2071487;28;20197;-68
2022/07/16 00:15:10;;;;;;;3.60;2.37;;;;;;;23.38;100.00;101192.75;2072725;28;20696;-68
2022/07/16 00:16:13;;;;;;;4.80;2.23;;;;;;;23.02;100.00;101148.31;2073601;28;20572;-68
2022/07/16 00:17:13;;;;;;;6.43;2.37;;;;;;;22.44;100.00;101050.09;2064769;28;20528;-68
2022/07/16 00:19:32;;;;;;;5.30;2.37;;;;;;;23.37;100.00;101198.91;2073772;28;20174;-68
2022/07/16 00:20:33;;;;;;;3.33;2.03;;;;;;;23.36;100.00;101200.19;2065721;28;20453;-68
2022/07/16 00:21:33;;;;;;;4.10;2.20;;;;;;;23.36;100.00;101194.53;2065343;28;20289;-68
2022/07/16 00:22:34;;;;;;;4.17;2.30;;;;;;;22.72;100.00;101104.72;2070353;28;20202;-68
2022/07/16 00:23:35;;;;;;;3.43;2.40;;;;;;;23.37;100.00;101190.41;2073286;28;20186;-68
2022/07/16 00:24:35;;;;;;;6.77;2.40;;;;;;;22.22;100.00;101024.50;2069933;28;20667;-68
2022/07/16 00:25:36;;;;;;;3.67;2.30;;;;;;;23.36;100.00;101195.31;2064996;28;20201;-68
2022/07/16 00:26:37;;;;;;;3.87;2.13;;;;;;;23.36;100.00;101203.00;2064848;28;20590;-68
2022/07/16 00:27:37;;;;;;;3.50;2.23;;;;;;;23.36;100.00;101198.13;2064712;28;20185;-69
2022/07/16 00:28:37;;;;;;;3.57;2.17;;;;;;;23.38;100.00;101204.03;2065349;28;20186;-68
2022/07/16 00:29:38;;;;;;;4.97;2.30;;;;;;;23.06;100.00;101150.88;2065219;28;20194;-68
2022/07/16 00:30:38;;;;;;;3.70;2.63;;;;;;;23.40;100.00;101195.06;2065385;28;20197;-68
2022/07/16 00:31:39;;;;;;;4.23;2.43;;;;;;;23.38;100.00;101206.88;2069433;28;20209;-68
2022/07/16 00:32:39;;;;;;;5.70;2.50;;;;;;;23.39;100.00;101204.84;2069875;28;20229;-68
2022/07/16 00:33:40;;;;;;;4.37;2.40;;;;;;;23.39;100.00;101199.19;2064797;28;20197;-68
2022/07/16 00:34:41;;;;;;;3.07;2.00;;;;;;;23.39;100.00;101207.66;2065096;28;20187;-68
2022/07/16 00:35:41;;;;;;;4.83;2.13;;;;;;;23.37;100.00;101208.16;2067391;28;20179;-68
2022/07/16 00:36:42;;;;;;;4.23;2.37;;;;;;;23.37;100.00;101213.81;2065434;28;20178;-68
2022/07/16 00:37:42;;;;;;;5.50;2.07;;;;;;;23.30;100.00;101208.66;2071321;28;20710;-69
2022/07/16 00:38:43;;;;;;;4.67;2.13;;;;;;;23.33;100.00;101201.22;2072680;28;20198;-68
2022/07/16 00:39:43;;;;;;;8.20;2.67;;;;;;;23.33;100.00;101207.63;2068611;28;20209;-68
2022/07/16 00:40:44;;;;;;;4.07;2.50;;;;;;;23.33;100.00;101207.63;2066564;28;20191;-68
2022/07/16 00:41:46;;;;;;;6.63;2.40;;;;;;;23.32;100.00;101208.91;2065165;28;20253;-68
2022/07/16 00:42:47;;;;;;;5.67;2.23;;;;;;;22.40;100.00;101074.16;2064771;28;20175;-68
2022/07/16 00:43:52;;;;;;;6.37;2.70;;;;;;;23.29;100.00;101226.88;2064056;28;20206;-68
2022/07/16 00:44:53;;;;;;;7.67;2.30;;;;;;;23.30;100.00;101217.13;2064745;28;20240;-68
2022/07/16 00:45:53;;;;;;;5.80;2.40;;;;;;;23.25;100.00;101203.75;2064753;28;20241;-68
2022/07/16 00:46:54;;;;;;;4.53;2.53;;;;;;;22.57;100.00;101103.34;2064713;28;20194;-68
2022/07/16 00:47:55;;;;;;;4.37;2.53;;;;;;;22.61;100.00;101118.78;2064741;28;20257;-68
2022/07/16 00:48:57;;;;;;;2.73;2.27;;;;;;;23.28;100.00;101216.84;2064968;28;20194;-68
2022/07/16 00:49:57;;;;;;;3.60;2.53;;;;;;;23.29;100.00;101211.97;2066336;28;20698;-68
2022/07/16 00:50:57;;;;;;;4.23;2.43;;;;;;;23.30;100.00;101211.47;2067848;28;20631;-68
2022/07/16 00:51:58;;;;;;;5.97;3.00;;;;;;;23.30;100.00;101217.13;2071395;28;20593;-68
2022/07/16 00:53:01;;;;;;;5.40;2.63;;;;;;;23.32;100.00;101208.13;2065236;28;20190;-68
2022/07/16 00:54:02;;;;;;;6.60;2.90;;;;;;;23.30;100.00;101214.31;2072963;28;20186;-68
2022/07/16 00:55:04;;;;;;;7.43;2.70;;;;;;;22.49;100.00;101097.38;2064898;28;20193;-68
2022/07/16 00:56:10;;;;;;;4.83;2.83;;;;;;;23.30;100.00;101210.69;2065125;28;20182;-68
2022/07/16 00:57:10;;;;;;;6.10;2.30;;;;;;;22.79;100.00;101143.81;2064389;28;20196;-68
2022/07/16 00:58:11;;;;;;;5.17;2.70;;;;;;;23.30;100.00;101214.31;2064806;28;20198;-68
2022/07/16 00:59:12;;;;;;;3.67;2.40;;;;;;;23.31;100.00;101218.69;2064840;28;20233;-68
2022/07/16 01:00:13;;;;;;;4.93;2.60;;;;;;;23.16;100.00;101195.44;2068009;28;20189;-68
2022/07/16 01:01:14;;;;;;;7.40;2.80;;;;;;;23.32;100.00;101213.78;2070983;28;20182;-68
2022/07/16 01:02:15;;;;;;;6.40;2.70;;;;;;;23.30;100.00;101225.63;2072026;28;20189;-68
2022/07/16 01:03:16;;;;;;;5.87;2.77;;;;;;;22.64;100.00;101112.13;2073369;28;20197;-68
2022/07/16 01:04:17;;;;;;;4.57;2.23;;;;;;;23.31;100.00;101212.25;2064804;28;20718;-68
2022/07/16 01:05:18;;;;;;;6.07;2.50;;;;;;;22.50;100.00;101093.28;2071498;28;20192;-69
2022/07/16 01:06:22;;;;;;;7.53;2.50;;;;;;;23.27;100.00;101215.31;2066862;28;20190;-69
2022/07/16 01:07:23;;;;;;;8.10;2.90;;;;;;;23.30;100.00;101219.19;2069700;28;20240;-68
2022/07/16 01:08:24;;;;;;;5.37;2.90;;;;;;;23.24;100.00;101207.06;2072894;28;20247;-68
2022/07/16 01:09:26;;;;;;;8.30;2.90;;;;;;;23.22;100.00;101215.25;2072879;28;20679;-68
2022/07/16 01:10:27;;;;;;;7.17;2.90;;;;;;;23.24;100.00;101218.38;2070740;28;20439;-68
2022/07/16 01:11:31;;;;;;;6.27;2.63;;;;;;;23.14;100.00;101211.34;2072197;28;20502;-69
2022/07/16 01:12:32;;;;;;;8.13;2.80;;;;;;;23.09;100.00;101226.22;2071729;28;20998;-68
2022/07/16 01:13:34;;;;;;;6.73;3.00;;;;;;;23.03;100.00;101214.88;2066632;28;20796;-68
2022/07/16 01:14:35;;;;;;;4.57;2.60;;;;;;;21.96;100.00;101046.38;2064518;28;20621;-69
2022/07/16 01:15:36;;;;;;;4.70;2.50;;;;;;;22.95;100.00;101227.16;2064378;28;20190;-68
2022/07/16 01:16:37;;;;;;;4.47;2.50;;;;;;;22.93;100.00;101222.00;2070523;28;20235;-68
2022/07/16 01:17:37;;;;;;;3.90;2.17;;;;;;;22.66;100.00;101183.00;2072167;28;20208;-68
2022/07/16 01:18:41;;;;;;;5.87;2.50;;;;;;;22.92;100.00;101242.31;2069255;28;20542;-68
2022/07/16 01:19:41;;;;;;;7.03;2.50;;;;;;;22.85;100.00;101228.63;2064910;28;20201;-69
2022/07/16 01:20:42;;;;;;;5.00;2.70;;;;;;;22.78;100.00;101232.66;2064672;28;20182;-68
2022/07/16 01:21:43;;;;;;;5.03;2.50;;;;;;;22.74;100.00;101228.53;2065336;28;20225;-68
2022/07/16 01:22:46;;;;;;;5.20;2.37;;;;;;;22.68;100.00;101228.47;2072787;28;20247;-68
2022/07/16 01:23:49;;;;;;;5.03;2.30;;;;;;;22.69;100.00;101229.25;2072315;28;20190;-68
2022/07/16 01:24:50;;;;;;;4.83;2.67;;;;;;;22.66;100.00;101214.09;2065642;28;20449;-68
2022/07/16 01:25:52;;;;;;;6.97;2.60;;;;;;;22.70;100.00;101225.16;2064339;28;20449;-68
2022/07/16 01:26:52;;;;;;;5.60;2.40;;;;;;;22.71;100.00;101235.97;2064441;28;20302;-68
2022/07/16 01:27:52;;;;;;;5.23;2.53;;;;;;;22.70;100.00;101225.94;2068605;28;20217;-68
2022/07/16 01:28:53;;;;;;;5.17;2.33;;;;;;;22.68;100.00;101222.81;2072496;28;20193;-68
2022/07/16 01:29:53;;;;;;;5.63;2.60;;;;;;;22.58;100.00;101207.34;2072780;28;20248;-68
2022/07/16 01:30:54;;;;;;;6.07;2.73;;;;;;;22.64;100.00;101222.31;2072872;28;20184;-68
2022/07/16 01:31:54;;;;;;;5.73;2.83;;;;;;;22.66;100.00;101225.38;2073158;28;20233;-68
2022/07/16 01:32:55;;;;;;;3.40;2.50;;;;;;;22.63;100.00;101225.63;2072453;28;20224;-68
2022/07/16 01:34:29;;;;;;;4.70;2.57;;;;;;;22.62;100.00;101229.72;2065951;28;20201;-69
2022/07/16 01:35:22;;;;;;;9.93;3.00;;;;;;;22.57;100.00;101230.44;2066009;28;20297;-68
2022/07/16 01:36:23;;;;;;;5.10;2.70;;;;;;;22.55;100.00;101227.34;2072228;28;20466;-68
2022/07/16 01:37:23;;;;;;;6.23;2.47;;;;;;;21.35;100.00;101044.22;2063807;28;20190;-68
2022/07/16 01:38:24;;;;;;;4.23;2.93;;;;;;;21.95;100.00;101146.41;2069348;28;20254;-68
2022/07/16 01:39:26;;;;;;;5.53;2.37;;;;;;;22.51;100.00;101224.75;2072436;28;20667;-68
2022/07/16 01:40:27;;;;;;;5.13;2.50;;;;;;;22.38;100.00;101230.00;2072717;28;20463;-68
2022/07/16 01:41:27;;;;;;;6.10;2.87;;;;;;;22.45;100.00;101229.56;2072807;28;20435;-68
2022/07/16 01:42:28;;;;;;;9.20;2.80;;;;;;;22.44;100.00;101225.19;2072403;28;20184;-68
2022/07/16 01:43:29;;;;;;;5.60;2.67;;;;;;;21.68;100.00;101107.41;2072500;28;20751;-68
2022/07/16 01:44:32;;;;;;;7.20;2.87;;;;;;;22.42;100.00;101229.78;2064473;28;20190;-68
2022/07/16 01:45:32;;;;;;;5.50;2.50;;;;;;;22.40;100.00;101230.25;2071019;28;20207;-68
2022/07/16 01:46:33;;;;;;;6.37;2.70;;;;;;;22.26;100.00;101204.97;2065590;28;20197;-68
2022/07/16 01:47:33;;;;;;;6.60;2.70;;;;;;;22.45;100.00;101228.78;2069442;28;20260;-68
2022/07/16 01:48:34;;;;;;;4.83;2.73;;;;;;;21.92;100.00;101150.25;2072330;28;20189;-68
2022/07/16 01:49:36;;;;;;;4.50;2.30;;;;;;;22.44;100.00;101233.69;2071232;28;20567;-68
2022/07/16 01:50:37;;;;;;;4.37;2.53;;;;;;;22.47;100.00;101229.06;2070613;28;20264;-68
2022/07/16 01:51:39;;;;;;;6.43;2.67;;;;;;;22.47;100.00;101226.25;2064529;28;20179;-68
2022/07/16 01:52:39;;;;;;;9.33;2.40;;;;;;;22.46;100.00;101233.19;2064189;28;20421;-68
2022/07/16 01:53:40;;;;;;;5.07;2.20;;;;;;;22.41;100.00;101228.22;2064555;28;20479;-68
2022/07/16 01:54:44;;;;;;;5.07;2.00;;;;;;;22.43;100.00;101232.09;2071790;28;20181;-68
2022/07/16 01:55:45;;;;;;;4.83;2.70;;;;;;;21.34;100.00;101065.22;2072260;28;20613;-68
2022/07/16 01:56:45;;;;;;;4.33;2.20;;;;;;;22.43;100.00;101232.09;2067130;28;20527;-68
2022/07/16 01:57:46;;;;;;;3.70;2.10;;;;;;;22.44;100.00;101239.31;2068399;28;20283;-68
2022/07/16 01:58:46;;;;;;;4.23;2.50;;;;;;;22.44;100.00;101233.69;2069051;28;20265;-68
2022/07/16 01:59:47;;;;;;;4.87;2.07;;;;;;;22.40;100.00;101229.47;2066253;28;20171;-68
2022/07/16 02:00:48;;;;;;;3.27;2.20;;;;;;;22.45;100.00;101235.22;2071487;28;20188;-68
2022/07/16 02:01:49;;;;;;;4.53;2.33;;;;;;;22.45;100.00;101234.44;2068632;28;20428;-68
2022/07/16 02:02:49;;;;;;;5.07;2.53;;;;;;;22.43;100.00;101236.97;2064323;28;20260;-69
2022/07/16 02:03:50;;;;;;;4.43;2.20;;;;;;;22.43;100.00;101239.78;2064115;28;20273;-68
2022/07/16 02:04:50;;;;;;;6.23;2.33;;;;;;;22.34;100.00;101223.78;2070368;28;20715;-68
2022/07/16 02:05:51;;;;;;;8.07;2.53;;;;;;;22.36;100.00;101223.31;2067527;28;20194;-68
2022/07/16 02:06:51;;;;;;;8.03;2.43;;;;;;;22.24;100.00;101213.94;2064368;28;20283;-68
2022/07/16 02:07:52;;;;;;;4.47;2.27;;;;;;;22.03;100.00;101172.94;2072052;28;20271;-68
2022/07/16 02:08:53;;;;;;;4.77;2.10;;;;;;;21.74;100.00;101119.53;2072541;28;20177;-68
2022/07/16 02:09:53;;;;;;;6.23;2.30;;;;;;;22.32;100.00;101208.63;2072007;28;20174;-68
2022/07/16 02:10:54;;;;;;;3.80;2.10;;;;;;;22.46;100.00;101227.53;2065006;28;20178;-68
2022/07/16 02:11:54;;;;;;;5.00;2.60;;;;;;;22.45;100.00;101231.59;2064517;28;20201;-68
2022/07/16 02:12:55;;;;;;;5.87;2.40;;;;;;;22.46;100.00;101230.34;2064202;28;20194;-68
2022/07/16 02:13:55;;;;;;;4.40;2.57;;;;;;;22.46;100.00;101222.63;2068717;28;20181;-68
2022/07/16 02:14:56;;;;;;;4.87;2.33;;;;;;;22.48;100.00;101227.78;2072604;28;20640;-68
2022/07/16 02:15:56;;;;;;;6.73;2.30;;;;;;;21.74;100.00;101121.59;2072097;28;20194;-68
2022/07/16 02:16:57;;;;;;;7.40;2.30;;;;;;;22.49;100.00;101226.50;2071969;28;20181;-68
2022/07/16 02:17:57;;;;;;;7.47;2.53;;;;;;;22.46;100.00;101224.72;2072222;28;20189;-68
2022/07/16 02:18:58;;;;;;;6.13;2.63;;;;;;;22.46;100.00;101225.47;2064864;28;20285;-68
2022/07/16 02:19:58;;;;;;;6.43;2.57;;;;;;;22.53;100.00;101236.34;2071457;28;20197;-68
2022/07/16 02:20:59;;;;;;;7.07;2.90;;;;;;;22.54;100.00;101240.69;2066325;28;20221;-68
2022/07/16 02:22:00;;;;;;;7.60;2.53;;;;;;;22.59;100.00;101242.00;2064317;28;20214;-68
2022/07/16 02:23:01;;;;;;;7.00;2.60;;;;;;;22.55;100.00;101239.41;2068527;28;20229;-68
2022/07/16 02:24:02;;;;;;;5.50;2.30;;;;;;;22.50;100.00;101228.84;2071879;28;20448;-69
2022/07/16 02:25:04;;;;;;;4.13;2.60;;;;;;;22.54;100.00;101237.09;2072177;28;20600;-68
2022/07/16 02:26:04;;;;;;;4.67;2.37;;;;;;;21.71;100.00;101102.81;2072426;28;20178;-68
2022/07/16 02:27:05;;;;;;;5.30;2.60;;;;;;;22.57;100.00;101238.94;2072159;28;21013;-68
2022/07/16 02:28:08;;;;;;;6.27;2.40;;;;;;;22.60;100.00;101246.38;2064555;28;20687;-68
2022/07/16 02:29:09;;;;;;;3.07;1.87;;;;;;;22.61;100.00;101245.13;2064452;28;20204;-68
2022/07/16 02:30:10;;;;;;;3.57;2.10;;;;;;;21.69;100.00;101102.56;2070301;28;20537;-68
2022/07/16 02:31:10;;;;;;;5.77;2.20;;;;;;;22.39;100.00;101219.47;2067302;28;20703;-68
2022/07/16 02:32:11;;;;;;;3.80;2.20;;;;;;;22.62;100.00;101250.25;2068126;28;20698;-68
2022/07/16 02:33:14;;;;;;;4.50;2.30;;;;;;;22.66;100.00;101247.19;2069524;28;20197;-68
2022/07/16 02:34:15;;;;;;;4.53;2.30;;;;;;;22.58;100.00;101240.47;2066140;28;20182;-68
2022/07/16 02:35:15;;;;;;;8.00;2.60;;;;;;;22.62;100.00;101253.09;2072003;28;21036;-68
2022/07/16 02:36:16;;;;;;;9.60;2.60;;;;;;;22.55;100.00;101241.47;2072665;28;20289;-68
2022/07/16 02:37:16;;;;;;;9.37;2.77;;;;;;;21.92;100.00;101144.59;2071881;28;20189;-68
2022/07/16 02:38:17;;;;;;;3.80;2.40;;;;;;;22.55;100.00;101241.47;2072313;28;20276;-68
2022/07/16 02:39:17;;;;;;;11.10;2.50;;;;;;;22.59;100.00;101244.84;2072395;28;20194;-68
2022/07/16 02:40:18;;;;;;;5.60;2.37;;;;;;;22.60;100.00;101252.03;2068976;28;20202;-68
2022/07/16 02:41:18;;;;;;;10.63;2.80;;;;;;;22.63;100.00;101248.97;2072589;28;20182;-68
2022/07/16 02:42:19;;;;;;;4.27;2.07;;;;;;;22.61;100.00;101248.72;2072234;28;20209;-68
2022/07/16 02:43:19;;;;;;;4.07;2.07;;;;;;;22.52;100.00;101245.31;2071185;28;20189;-68
2022/07/16 02:44:20;;;;;;;4.37;1.90;;;;;;;22.59;100.00;101250.50;2063830;28;20189;-68
2022/07/16 02:45:20;;;;;;;3.93;2.00;;;;;;;22.58;100.00;101263.06;2064039;28;20179;-68
2022/07/16 02:46:21;;;;;;;6.87;2.27;;;;;;;22.59;100.00;101256.13;2070846;28;20692;-68
2022/07/16 02:47:21;;;;;;;8.77;2.43;;;;;;;22.16;100.00;101190.25;2065272;28;20202;-68
2022/07/16 02:48:22;;;;;;;9.07;2.87;;;;;;;22.65;100.00;101257.75;2069331;28;20247;-68
2022/07/16 02:49:22;;;;;;;6.60;2.60;;;;;;;22.68;100.00;101255.97;2068706;28;20483;-68
2022/07/16 02:50:23;;;;;;;4.20;2.10;;;;;;;22.68;100.00;101261.63;2069404;28;20746;-68
2022/07/16 02:51:23;;;;;;;11.50;2.83;;;;;;;22.72;100.00;101277.06;2065877;28;20212;-68
2022/07/16 02:52:24;;;;;;;8.50;2.70;;;;;;;22.39;100.00;101206.13;2072047;28;20625;-68
2022/07/16 02:53:24;;;;;;;7.67;2.60;;;;;;;22.75;100.00;101263.97;2072668;28;20236;-68
2022/07/16 02:54:25;;;;;;;7.50;2.60;;;;;;;22.77;100.00;101262.22;2064631;28;20442;-68
2022/07/16 02:55:26;;;;;;;5.53;2.20;;;;;;;22.77;100.00;101253.72;2063938;28;20198;-68
2022/07/16 02:56:26;;;;;;;10.50;2.80;;;;;;;22.81;100.00;101262.75;2064278;28;20221;-68
2022/07/16 02:57:27;;;;;;;12.77;3.50;;;;;;;22.80;100.00;101268.91;2068007;28;20213;-68
2022/07/16 02:58:27;;;;;;;14.07;3.80;;;;;;;22.82;100.00;101269.19;2069438;28;20240;-68
2022/07/16 02:59:28;;;;;;;6.57;3.00;;;;;;;22.80;100.00;101269.69;2066167;28;20683;-68
2022/07/16 03:00:29;;;;;;;9.33;2.10;;;;;;;22.76;100.00;101269.13;2071092;28;20201;-68
2022/07/16 03:01:30;;;;;;;6.90;2.30;;;;;;;22.07;100.00;101170.66;2065775;28;20269;-69
2022/07/16 03:02:30;;;;;;;3.13;2.30;;;;;;;22.72;100.00;101274.22;2064386;28;20449;-68
2022/07/16 03:03:30;;;;;;;4.47;2.10;;;;;;;22.68;100.00;101276.50;2064208;28;20225;-68
2022/07/16 03:04:31;;;;;;;8.03;2.50;;;;;;;22.64;100.00;101273.16;2069625;28;20284;-68
2022/07/16 03:05:31;;;;;;;4.20;2.10;;;;;;;22.61;100.00;101273.38;2067261;28;20182;-68
2022/07/16 03:06:32;;;;;;;5.40;2.43;;;;;;;21.93;100.00;101179.22;2064245;28;20225;-68
2022/07/16 03:07:33;;;;;;;4.73;2.10;;;;;;;21.70;100.00;101144.34;2069037;28;20186;-69
2022/07/16 03:08:33;;;;;;;3.90;2.40;;;;;;;22.49;100.00;101269.66;2072436;28;20181;-68
2022/07/16 03:09:34;;;;;;;6.17;3.00;;;;;;;22.08;100.00;101206.09;2072315;28;20178;-68
2022/07/16 03:10:34;;;;;;;5.53;2.50;;;;;;;22.08;100.00;101216.59;2064206;28;20190;-68
2022/07/16 03:11:35;;;;;;;6.87;2.70;;;;;;;22.32;100.00;101256.63;2065773;28;20190;-68
2022/07/16 03:12:36;;;;;;;5.47;2.63;;;;;;;22.40;100.00;101275.44;2065572;28;20244;-68
2022/07/16 03:13:36;;;;;;;7.17;2.77;;;;;;;22.42;100.00;101272.88;2067763;28;20200;-68
2022/07/16 03:14:37;;;;;;;8.00;2.90;;;;;;;21.99;100.00;101211.09;2073404;28;20186;-68
2022/07/16 03:15:37;;;;;;;10.60;3.00;;;;;;;22.44;100.00;101278.03;2073334;28;20273;-68
2022/07/16 03:16:38;;;;;;;6.83;2.77;;;;;;;22.05;100.00;101220.41;2072342;28;20285;-68
2022/07/16 03:17:42;;;;;;;7.50;2.93;;;;;;;22.37;100.00;101273.59;2065463;28;20265;-68
2022/07/16 03:18:42;;;;;;;8.53;2.57;;;;;;;22.32;100.00;101259.44;2074154;28;20204;-68
2022/07/16 03:19:43;;;;;;;7.33;2.83;;;;;;;22.03;100.00;101225.78;2073689;28;20463;-68
2022/07/16 03:20:43;;;;;;;9.03;2.63;;;;;;;22.35;100.00;101279.00;2073424;28;20221;-68
2022/07/16 03:21:43;;;;;;;8.03;3.03;;;;;;;22.12;100.00;101259.50;2068302;28;20277;-68
2022/07/16 03:22:45;;;;;;;5.10;2.80;;;;;;;22.20;100.00;101283.16;2069896;28;20255;-68
2022/07/16 03:23:46;;;;;;;5.90;2.60;;;;;;;22.15;100.00;101276.22;2069851;28;20245;-68
2022/07/16 03:24:46;;;;;;;5.70;2.67;;;;;;;21.95;100.00;101236.72;2065779;28;20186;-68
2022/07/16 03:25:47;;;;;;;6.50;2.47;;;;;;;22.24;100.00;101278.88;2068793;28;20192;-68
2022/07/16 03:26:47;;;;;;;3.40;2.40;;;;;;;22.23;100.00;101285.00;2073228;28;20240;-68
2022/07/16 03:27:48;;;;;;;4.43;2.50;;;;;;;22.27;100.00;101271.47;2065421;28;20209;-68
2022/07/16 03:28:48;;;;;;;8.13;2.70;;;;;;;22.33;100.00;101278.72;2065659;28;20189;-68
2022/07/16 03:29:49;;;;;;;3.63;2.57;;;;;;;21.57;100.00;101158.03;2071867;28;20189;-68
2022/07/16 03:30:49;;;;;;;6.40;2.47;;;;;;;22.44;100.00;101280.88;2068501;28;20193;-68
2022/07/16 03:31:50;;;;;;;6.20;2.83;;;;;;;22.42;100.00;101278.53;2069495;28;20683;-68
2022/07/16 03:32:51;;;;;;;6.63;2.40;;;;;;;22.46;100.00;101290.44;2070675;28;20198;-69
2022/07/16 03:33:51;;;;;;;3.70;2.20;;;;;;;22.36;100.00;101266.41;2066815;28;20174;-68
2022/07/16 03:34:52;;;;;;;4.03;2.33;;;;;;;22.51;100.00;101286.88;2073159;28;20206;-68
2022/07/16 03:35:52;;;;;;;4.43;2.43;;;;;;;22.53;100.00;101286.38;2069347;28;20604;-68
2022/07/16 03:36:53;;;;;;;7.53;2.83;;;;;;;21.74;100.00;101169.53;2073266;28;20196;-68
2022/07/16 03:39:13;;;;;;;3.47;2.03;;;;;;;22.58;100.00;101292.09;2065960;28;20209;-68
2022/07/16 03:40:13;;;;;;;4.67;2.37;;;;;;;22.60;100.00;101288.75;2066573;28;20491;-68
2022/07/16 03:41:14;;;;;;;4.87;2.50;;;;;;;22.53;100.00;101275.09;2073380;28;20190;-68
2022/07/16 03:42:14;;;;;;;5.20;2.47;;;;;;;22.65;100.00;101300.13;2073388;28;20181;-68
2022/07/16 03:43:15;;;;;;;5.70;2.50;;;;;;;22.68;100.00;101287.81;2070372;28;20270;-68
2022/07/16 03:44:15;;;;;;;5.13;2.20;;;;;;;22.72;100.00;101296.09;2065090;28;20193;-68
2022/07/16 03:45:16;;;;;;;5.80;2.33;;;;;;;22.75;100.00;101297.88;2064981;28;20282;-68
2022/07/16 03:46:17;;;;;;;3.63;2.10;;;;;;;22.72;100.00;101285.53;2065790;28;20178;-69
2022/07/16 03:47:17;;;;;;;4.23;2.10;;;;;;;22.78;100.00;101294.84;2065438;28;20465;-68
2022/07/16 03:48:17;;;;;;;5.57;2.40;;;;;;;22.82;100.00;101294.63;2065676;28;20226;-68
2022/07/16 03:49:18;;;;;;;3.87;2.30;;;;;;;22.89;100.00;101294.94;2071388;28;20272;-68
2022/07/16 03:50:19;;;;;;;4.37;2.30;;;;;;;22.93;100.00;101298.31;2072844;28;20605;-68
2022/07/16 03:51:19;;;;;;;4.87;2.30;;;;;;;22.87;100.00;101279.78;2072599;28;20609;-68
2022/07/16 03:52:20;;;;;;;3.57;2.03;;;;;;;22.98;100.00;101297.56;2064356;28;20225;-68
2022/07/16 03:53:20;;;;;;;3.23;2.00;;;;;;;23.01;100.00;101295.78;2066288;28;20237;-68
2022/07/16 03:54:21;;;;;;;4.37;2.10;;;;;;;23.00;100.00;101292.22;2073115;28;20266;-68
2022/07/16 03:55:21;;;;;;;3.63;2.00;;;;;;;22.29;100.00;101184.97;2072597;28;20704;-68
2022/07/16 03:56:22;;;;;;;5.77;1.90;;;;;;;23.04;100.00;101303.28;2072892;28;20194;-68
2022/07/16 03:57:22;;;;;;;3.90;2.13;;;;;;;23.04;100.00;101300.47;2073064;28;20205;-69
2022/07/16 03:58:23;;;;;;;5.20;2.13;;;;;;;23.09;100.00;101302.56;2068690;28;20190;-68
2022/07/16 03:59:23;;;;;;;4.97;1.80;;;;;;;23.10;100.00;101298.44;2065418;28;20205;-68
2022/07/16 04:00:24;;;;;;;5.33;2.20;;;;;;;23.13;100.00;101303.88;2065317;28;20194;-68
2022/07/16 04:01:24;;;;;;;5.47;2.00;;;;;;;23.08;100.00;101295.34;2065431;28;20182;-68
2022/07/16 04:02:25;;;;;;;4.47;1.93;;;;;;;23.18;100.00;101300.34;2073291;28;20268;-68
2022/07/16 04:03:25;;;;;;;3.23;2.10;;;;;;;23.24;100.00;101306.03;2073849;28;20177;-68
2022/07/16 04:04:26;;;;;;;3.13;1.90;;;;;;;23.26;100.00;101304.25;2072379;28;20710;-68
2022/07/16 04:05:26;;;;;;;5.40;2.40;;;;;;;23.29;100.00;101311.72;2072468;28;20194;-68
2022/07/16 04:06:27;;;;;;;2.87;1.90;;;;;;;23.32;100.00;101302.25;2065439;28;20194;-68
2022/07/16 04:07:27;;;;;;;2.83;2.00;;;;;;;22.60;100.00;101184.22;2065278;28;20281;-68
2022/07/16 04:08:28;;;;;;;3.83;2.07;;;;;;;23.38;100.00;101300.22;2065587;28;20289;-68
2022/07/16 04:09:28;;;;;;;6.70;2.00;;;;;;;23.39;100.00;101307.41;2065313;28;20193;-68
2022/07/16 04:10:29;;;;;;;2.97;1.90;;;;;;;23.42;100.00;101308.47;2065520;28;20214;-68
2022/07/16 04:11:29;;;;;;;3.73;2.13;;;;;;;23.44;100.00;101301.03;2072621;28;20194;-68
2022/07/16 04:12:30;;;;;;;7.10;2.13;;;;;;;23.45;100.00;101304.63;2065283;28;20190;-68
2022/07/16 04:13:31;;;;;;;4.73;1.80;;;;;;;23.45;100.00;101304.63;2070702;28;20190;-68
2022/07/16 04:14:31;;;;;;;3.77;2.10;;;;;;;23.47;100.00;101308.50;2064813;28;20190;-68
2022/07/16 04:15:32;;;;;;;6.30;2.50;;;;;;;23.54;100.00;101310.84;2064697;28;20198;-69
2022/07/16 04:16:32;;;;;;;4.13;2.17;;;;;;;23.55;100.00;101306.75;2068729;28;20218;-68
2022/07/16 04:17:33;;;;;;;4.73;2.00;;;;;;;23.59;100.00;101303.69;2072832;28;20182;-68
2022/07/16 04:18:34;;;;;;;4.30;1.90;;;;;;;23.54;100.00;101302.38;2072397;28;20235;-68
2022/07/16 04:19:34;;;;;;;6.07;2.20;;;;;;;23.57;100.00;101298.53;2065284;28;20611;-68
2022/07/16 04:20:35;;;;;;;4.20;2.20;;;;;;;23.68;100.00;101312.75;2073638;28;20201;-68
2022/07/16 04:21:36;;;;;;;4.30;1.80;;;;;;;23.73;100.00;101320.50;2065398;28;20191;-68
2022/07/16 04:22:37;;;;;;;5.17;2.27;;;;;;;23.72;100.00;101335.13;2071138;28;20209;-68
2022/07/16 04:23:37;;;;;;;4.90;2.33;;;;;;;23.03;100.00;101226.16;2068280;28;20186;-69
2022/07/16 04:24:38;;;;;;;5.77;2.23;;;;;;;23.67;100.00;101328.19;2064979;28;20218;-68
2022/07/16 04:25:38;;;;;;;3.53;2.23;;;;;;;23.60;100.00;101302.41;2066934;28;20248;-68
2022/07/16 04:26:39;;;;;;;4.80;2.20;;;;;;;23.26;100.00;101256.19;2071372;28;20284;-68
2022/07/16 04:27:41;;;;;;;3.00;2.40;;;;;;;23.81;100.00;101329.28;2064941;28;20195;-69
2022/07/16 04:28:41;;;;;;;3.50;2.00;;;;;;;23.88;100.00;101338.06;2065570;28;20545;-68
2022/07/16 04:29:42;;;;;;;8.67;2.80;;;;;;;23.92;100.00;101326.53;2073000;28;20216;-68
2022/07/16 04:30:43;;;;;;;11.37;3.33;;;;;;;23.95;100.00;101337.59;2066576;28;20256;-68
2022/07/16 04:31:43;;;;;;;11.53;3.80;;;;;;;23.97;100.00;101337.88;2064873;28;20671;-68
2022/07/16 04:32:44;;;;;;;13.13;3.80;;;;;;;23.63;100.00;101284.41;2064824;28;20313;-68
2022/07/16 04:33:44;;;;;;;10.83;3.67;;;;;;;24.02;100.00;101339.19;2064655;28;20194;-68
2022/07/16 04:34:45;;;;;;;5.70;3.00;;;;;;;24.01;100.00;101332.72;2067328;28;20185;-68
2022/07/16 04:35:45;;;;;;;8.93;3.50;;;;;;;23.57;100.00;101256.09;2071719;28;20205;-68
2022/07/16 04:36:46;;;;;;;6.03;2.97;;;;;;;23.21;100.00;101203.19;2065262;28;20268;-68
2022/07/16 04:37:46;;;;;;;7.33;3.40;;;;;;;24.14;100.00;101352.88;2072776;28;20189;-68
2022/07/16 04:38:47;;;;;;;5.50;2.90;;;;;;;24.13;100.00;101339.22;2066086;28;20190;-68
2022/07/16 04:39:47;;;;;;;7.93;3.17;;;;;;;24.23;100.00;101346.22;2071019;28;20347;-68
2022/07/16 04:40:47;;;;;;;7.27;2.97;;;;;;;24.27;100.00;101341.88;2068342;28;20668;-68
2022/07/16 04:41:48;;;;;;;3.97;2.80;;;;;;;24.27;100.00;101336.22;2068556;28;20185;-68
2022/07/16 04:42:48;;;;;;;5.00;2.87;;;;;;;24.35;100.00;101344.97;2072673;28;20182;-68
2022/07/16 04:43:49;;;;;;;5.50;2.60;;;;;;;24.38;100.00;101346.78;2071355;28;20320;-68